Time;durP1;ratioP1;P1;durP2;ratioP2;P2;SDS_P1;SDS_P2;PMS_P1;PMS_P2;Temp;Humidity;BMP_temperature;BMP_pressure;BME280_temperature;BME280_humidity;BME280_pressure;Samples;Min_cycle;Max_cycle;Signal;HPM_P1;HPM_P2
2023/06/02 00:00:00;;;;;;;8.88;1.88;;;13.70;89.20;;;;;;5014785;28;20030;-64
2023/06/02 00:02:29;;;;;;;9.45;2.30;;;13.70;89.50;;;;;;5018437;28;20129;-63
2023/06/02 00:04:59;;;;;;;8.30;2.28;;;13.60;89.20;;;;;;5021882;28;20031;-64
2023/06/02 00:07:25;;;;;;;10.88;1.73;;;13.60;90.00;;;;;;5018031;28;20022;-63
2023/06/02 00:09:52;;;;;;;8.07;2.28;;;13.50;90.20;;;;;;5017683;28;20508;-64
2023/06/02 00:12:18;;;;;;;10.20;2.22;;;13.50;90.20;;;;;;5013639;28;20029;-65
2023/06/02 00:14:45;;;;;;;14.23;3.00;;;13.50;90.20;;;;;;5015826;28;20029;-63
2023/06/02 00:17:11;;;;;;;7.13;1.95;;;13.50;90.20;;;;;;5020646;28;20037;-62
2023/06/02 00:19:42;;;;;;;10.18;2.33;;;13.50;90.40;;;;;;5019103;28;20033;-63
2023/06/02 00:22:15;;;;;;;8.10;2.25;;;13.40;90.40;;;;;;5015978;28;20021;-63
2023/06/02 00:24:41;;;;;;;17.10;2.45;;;13.40;90.50;;;;;;5015273;28;20030;-63
2023/06/02 00:27:07;;;;;;;11.98;2.08;;;13.40;90.50;;;;;;5011586;28;20010;-64
2023/06/02 00:29:33;;;;;;;14.48;2.83;;;13.30;90.80;;;;;;5020885;28;20075;-62
2023/06/02 00:31:59;;;;;;;8.73;1.98;;;13.30;90.90;;;;;;5021258;28;20033;-63
2023/06/02 00:34:25;;;;;;;10.05;2.28;;;13.30;91.10;;;;;;5019333;28;20034;-63
2023/06/02 00:36:51;;;;;;;11.38;2.08;;;13.20;91.10;;;;;;4998553;28;20045;-63
2023/06/02 00:39:17;;;;;;;9.38;2.53;;;13.20;91.40;;;;;;5013275;28;20065;-63
2023/06/02 00:41:45;;;;;;;9.65;1.92;;;13.20;91.50;;;;;;5001219;28;20484;-64
2023/06/02 00:44:11;;;;;;;8.82;2.47;;;13.20;91.60;;;;;;5019367;28;20095;-64
2023/06/02 00:46:37;;;;;;;12.35;2.92;;;13.20;91.80;;;;;;5021525;28;20025;-64
2023/06/02 00:49:03;;;;;;;13.95;2.83;;;13.20;92.20;;;;;;4998284;28;20029;-63
2023/06/02 00:51:29;;;;;;;7.35;1.95;;;13.30;92.30;;;;;;5014710;28;20037;-62
2023/06/02 00:53:56;;;;;;;10.65;2.38;;;13.30;92.30;;;;;;5000164;28;20036;-63
2023/06/02 00:56:22;;;;;;;9.50;2.25;;;13.40;92.30;;;;;;5018750;28;20026;-63
2023/06/02 00:58:49;;;;;;;8.90;1.90;;;13.40;92.20;;;;;;4999603;28;20033;-63
2023/06/02 01:01:18;;;;;;;11.63;2.78;;;13.50;92.20;;;;;;4996192;28;20445;-63
2023/06/02 01:03:47;;;;;;;7.90;2.00;;;13.50;92.10;;;;;;5014238;28;20032;-63
2023/06/02 01:06:23;;;;;;;4.82;2.08;;;13.50;92.20;;;;;;5014968;28;20025;-63
2023/06/02 01:08:50;;;;;;;10.70;2.47;;;13.40;92.10;;;;;;5020185;28;20021;-63
2023/06/02 01:11:17;;;;;;;9.52;2.65;;;13.40;92.20;;;;;;5017171;28;20029;-62
2023/06/02 01:13:43;;;;;;;16.83;3.25;;;13.40;92.20;;;;;;5004791;28;20477;-62
2023/06/02 01:16:12;;;;;;;18.25;2.65;;;13.30;92.10;;;;;;4995148;28;20053;-62
2023/06/02 01:18:45;;;;;;;8.05;2.42;;;13.30;92.00;;;;;;5013352;28;20049;-62
2023/06/02 01:21:12;;;;;;;12.68;2.30;;;13.30;92.00;;;;;;5019888;28;20484;-63
2023/06/02 01:23:49;;;;;;;5.38;2.08;;;13.20;92.00;;;;;;5001469;28;20033;-62
2023/06/02 01:26:15;;;;;;;10.52;2.75;;;13.20;92.20;;;;;;4997493;28;20026;-62
2023/06/02 01:28:41;;;;;;;14.18;2.72;;;13.10;92.30;;;;;;5019092;28;21279;-64
2023/06/02 01:31:21;;;;;;;8.82;2.60;;;13.10;92.10;;;;;;4993091;28;20026;-63
2023/06/02 01:33:58;;;;;;;6.28;2.00;;;13.00;92.20;;;;;;5003087;28;20029;-63
2023/06/02 01:36:28;;;;;;;14.82;2.45;;;13.00;92.20;;;;;;5018322;28;20049;-63
2023/06/02 01:38:57;;;;;;;9.77;2.10;;;13.00;92.30;;;;;;5016786;28;20132;-63
2023/06/02 01:41:27;;;;;;;12.98;2.47;;;12.90;92.30;;;;;;5013988;28;20480;-63
2023/06/02 01:43:55;;;;;;;9.15;2.28;;;12.90;92.60;;;;;;5014703;28;20444;-63
2023/06/02 01:46:24;;;;;;;11.38;2.58;;;12.80;92.80;;;;;;5020425;28;20036;-63
2023/06/02 01:48:54;;;;;;;12.43;2.72;;;12.80;92.80;;;;;;5018740;28;20041;-63
2023/06/02 01:51:20;;;;;;;8.20;2.10;;;12.80;92.90;;;;;;4997689;28;20095;-62
2023/06/02 01:53:45;;;;;;;15.80;2.58;;;12.80;92.80;;;;;;4997664;28;20033;-63
2023/06/02 01:56:11;;;;;;;20.45;2.75;;;12.70;92.90;;;;;;4992847;28;20406;-62
2023/06/02 01:58:37;;;;;;;9.50;2.58;;;12.70;93.00;;;;;;5020951;28;20120;-63
2023/06/02 02:01:03;;;;;;;11.07;3.00;;;12.60;93.10;;;;;;5000753;28;20022;-63
2023/06/02 02:03:30;;;;;;;13.15;2.35;;;12.60;93.10;;;;;;5016771;28;20044;-63
2023/06/02 02:05:56;;;;;;;8.93;2.63;;;12.60;93.20;;;;;;5015295;28;20033;-63
2023/06/02 02:08:22;;;;;;;12.45;2.72;;;12.60;93.10;;;;;;5012695;28;20466;-63
2023/06/02 02:10:48;;;;;;;13.65;2.58;;;12.60;93.20;;;;;;5017382;28;20148;-63
2023/06/02 02:13:13;;;;;;;13.93;2.85;;;12.50;93.20;;;;;;5018511;28;20037;-63
2023/06/02 02:15:39;;;;;;;7.40;2.13;;;12.50;93.20;;;;;;5018069;28;20151;-63
2023/06/02 02:18:06;;;;;;;12.02;2.83;;;12.50;93.20;;;;;;4996080;28;20044;-62
2023/06/02 02:20:32;;;;;;;9.65;2.13;;;12.40;93.40;;;;;;4996475;28;20037;-63
2023/06/02 02:22:58;;;;;;;10.93;2.33;;;12.40;93.40;;;;;;4994101;28;20033;-63
2023/06/02 02:25:24;;;;;;;9.90;2.67;;;12.40;93.40;;;;;;5001831;28;20032;-63
2023/06/02 02:27:50;;;;;;;9.75;2.08;;;12.40;93.50;;;;;;5002972;28;20433;-63
2023/06/02 02:30:15;;;;;;;17.70;3.40;;;12.30;93.50;;;;;;5014513;28;20034;-63
2023/06/02 02:32:43;;;;;;;11.98;2.42;;;12.30;93.60;;;;;;5017591;28;20384;-63
2023/06/02 02:35:11;;;;;;;8.50;2.17;;;12.40;93.60;;;;;;5013009;28;20049;-63
2023/06/02 02:37:38;;;;;;;9.15;2.72;;;12.30;93.80;;;;;;5021001;28;20025;-63
2023/06/02 02:40:08;;;;;;;7.70;2.42;;;12.30;93.70;;;;;;4999503;28;20037;-63
2023/06/02 02:42:34;;;;;;;9.02;2.40;;;12.20;93.60;;;;;;5001106;28;20132;-63
2023/06/02 02:45:04;;;;;;;17.20;3.30;;;12.20;93.60;;;;;;4995325;28;20021;-63
2023/06/02 02:47:32;;;;;;;8.27;2.38;;;12.20;93.90;;;;;;4995212;28;20022;-63
2023/06/02 02:49:59;;;;;;;10.75;2.67;;;12.10;94.00;;;;;;5018847;28;20040;-63
2023/06/02 02:52:27;;;;;;;16.30;2.95;;;12.10;94.10;;;;;;5000428;28;20048;-63
2023/06/02 02:54:53;;;;;;;10.30;2.60;;;12.10;94.20;;;;;;4998742;28;20079;-63
2023/06/02 02:57:19;;;;;;;13.48;3.13;;;12.10;94.30;;;;;;4994187;28;20029;-66
2023/06/02 02:59:45;;;;;;;12.70;2.45;;;12.10;94.30;;;;;;4994255;28;20040;-66
2023/06/02 03:02:13;;;;;;;9.40;2.85;;;12.10;94.30;;;;;;4998278;28;20032;-66
2023/06/02 03:04:41;;;;;;;9.35;2.35;;;12.10;94.40;;;;;;5018117;28;20029;-66
2023/06/02 03:07:07;;;;;;;9.10;2.83;;;12.10;94.30;;;;;;4996009;28;20025;-66
2023/06/02 03:09:33;;;;;;;7.55;2.53;;;12.10;94.20;;;;;;5012127;28;20021;-66
2023/06/02 03:12:00;;;;;;;13.27;2.80;;;12.10;94.30;;;;;;4991948;28;20490;-64
2023/06/02 03:14:28;;;;;;;9.57;2.65;;;12.10;94.20;;;;;;4996527;28;20049;-65
2023/06/02 03:16:58;;;;;;;13.02;3.13;;;12.00;94.50;;;;;;5000634;28;20768;-64
2023/06/02 03:19:26;;;;;;;13.57;2.60;;;12.10;94.40;;;;;;4997055;28;20033;-64
2023/06/02 03:21:52;;;;;;;7.03;2.30;;;12.00;94.40;;;;;;4997239;28;20025;-66
2023/06/02 03:24:20;;;;;;;10.82;3.22;;;12.10;94.50;;;;;;4993891;28;20026;-64
2023/06/02 03:26:51;;;;;;;13.75;2.90;;;12.00;94.60;;;;;;5012972;28;20405;-65
2023/06/02 03:29:18;;;;;;;13.63;3.15;;;12.00;94.70;;;;;;4999886;28;20022;-65
2023/06/02 03:31:45;;;;;;;9.65;3.10;;;12.10;94.70;;;;;;5002465;28;20051;-66
2023/06/02 03:34:15;;;;;;;11.68;2.60;;;12.10;94.80;;;;;;4994998;28;20386;-67
2023/06/02 03:36:41;;;;;;;8.43;2.67;;;12.10;94.90;;;;;;5020408;28;20025;-66
2023/06/02 03:39:09;;;;;;;12.77;3.65;;;12.10;94.90;;;;;;4991703;28;20819;-66
2023/06/02 03:41:36;;;;;;;9.38;2.95;;;12.20;95.00;;;;;;5020326;28;20034;-65
2023/06/02 03:44:04;;;;;;;10.05;2.95;;;12.20;94.90;;;;;;4998198;28;20367;-65
2023/06/02 03:46:32;;;;;;;17.15;3.58;;;12.30;94.80;;;;;;4997629;28;20026;-65
2023/06/02 03:48:59;;;;;;;12.50;3.13;;;12.30;94.80;;;;;;4999232;28;20025;-65
2023/06/02 03:51:25;;;;;;;10.95;2.78;;;12.30;94.70;;;;;;4998381;28;20084;-66
2023/06/02 03:53:52;;;;;;;9.60;2.65;;;12.40;94.70;;;;;;5022874;28;20029;-65
2023/06/02 03:56:19;;;;;;;9.82;3.22;;;12.40;94.60;;;;;;5001574;28;20410;-64
2023/06/02 03:58:46;;;;;;;10.18;2.65;;;12.50;94.60;;;;;;5016130;28;20029;-65
2023/06/02 04:01:12;;;;;;;9.60;2.75;;;12.50;94.40;;;;;;4997023;28;20033;-66
2023/06/02 04:03:41;;;;;;;11.65;3.17;;;12.60;94.40;;;;;;5001596;28;20516;-64
2023/06/02 04:06:09;;;;;;;12.68;3.10;;;12.70;94.30;;;;;;4997249;28;20792;-66
2023/06/02 04:08:36;;;;;;;11.23;3.03;;;12.70;94.00;;;;;;5021613;28;20211;-66
2023/06/02 04:11:02;;;;;;;11.93;2.80;;;12.70;93.90;;;;;;5017983;28;20055;-65
2023/06/02 04:13:29;;;;;;;15.15;3.28;;;12.80;94.00;;;;;;4999549;28;20430;-65
2023/06/02 04:15:57;;;;;;;13.70;3.22;;;12.80;93.90;;;;;;4996813;28;20033;-65
2023/06/02 04:18:24;;;;;;;16.55;3.67;;;12.80;93.80;;;;;;4982976;28;20030;-66
2023/06/02 04:20:50;;;;;;;12.98;3.17;;;12.90;93.80;;;;;;5005518;28;20037;-66
2023/06/02 04:23:16;;;;;;;10.45;3.25;;;12.90;93.60;;;;;;4999487;28;20049;-66
2023/06/02 04:25:42;;;;;;;11.18;2.95;;;12.90;93.40;;;;;;5013270;28;20026;-66
2023/06/02 04:28:08;;;;;;;18.73;3.97;;;12.90;93.20;;;;;;5012269;28;20151;-66
2023/06/02 04:30:38;;;;;;;17.52;3.55;;;12.90;93.20;;;;;;4997113;28;20025;-67
2023/06/02 04:33:04;;;;;;;15.18;3.05;;;13.00;93.10;;;;;;4999864;28;20386;-67
2023/06/02 04:35:30;;;;;;;13.43;2.58;;;13.00;93.30;;;;;;5001292;28;20079;-66
2023/06/02 04:37:56;;;;;;;12.35;2.92;;;13.00;93.40;;;;;;5000506;28;20120;-66
2023/06/02 04:40:23;;;;;;;16.45;3.05;;;13.00;93.40;;;;;;4996949;28;20381;-65
2023/06/02 04:42:49;;;;;;;13.82;3.22;;;13.10;93.40;;;;;;5001218;28;20029;-67
2023/06/02 04:45:16;;;;;;;10.10;2.78;;;13.10;93.30;;;;;;5020756;28;20030;-66
2023/06/02 04:47:44;;;;;;;10.65;3.22;;;13.20;93.20;;;;;;5019220;28;20025;-66
2023/06/02 04:50:13;;;;;;;13.52;3.42;;;13.30;93.20;;;;;;4997885;28;20511;-66
2023/06/02 04:52:39;;;;;;;17.70;3.55;;;13.40;93.00;;;;;;5004603;28;20107;-67
2023/06/02 04:55:11;;;;;;;15.02;3.30;;;13.60;92.80;;;;;;4993908;28;20037;-65
2023/06/02 04:57:39;;;;;;;16.85;3.60;;;13.70;92.50;;;;;;5003781;28;20060;-68
2023/06/02 05:00:07;;;;;;;15.57;3.25;;;13.70;92.30;;;;;;5000584;28;20033;-65
2023/06/02 05:02:35;;;;;;;13.48;3.05;;;13.70;92.20;;;;;;4998011;28;20051;-66
2023/06/02 05:05:04;;;;;;;15.90;3.70;;;13.80;92.30;;;;;;5013579;28;20044;-66
2023/06/02 05:07:32;;;;;;;12.82;3.25;;;13.90;92.20;;;;;;4996677;28;20030;-66
2023/06/02 05:09:58;;;;;;;12.95;3.28;;;13.90;92.00;;;;;;4999665;28;20040;-66
2023/06/02 05:12:25;;;;;;;14.32;3.35;;;14.00;91.60;;;;;;5018681;28;20033;-67
2023/06/02 05:14:53;;;;;;;9.05;2.83;;;14.00;91.80;;;;;;5017541;28;20033;-67
2023/06/02 05:17:24;;;;;;;15.73;3.10;;;14.00;91.60;;;;;;4997118;28;20033;-66
2023/06/02 05:19:53;;;;;;;11.60;3.03;;;14.10;91.70;;;;;;4979538;28;20148;-65
2023/06/02 05:22:20;;;;;;;14.73;3.00;;;14.10;91.50;;;;;;4998671;28;20045;-66
2023/06/02 05:24:46;;;;;;;16.55;3.15;;;14.10;91.60;;;;;;5020210;28;20034;-67
2023/06/02 05:27:13;;;;;;;13.52;2.97;;;14.10;91.60;;;;;;4999007;28;20044;-65
2023/06/02 05:29:39;;;;;;;10.23;2.53;;;14.10;91.80;;;;;;5016663;28;20025;-65
2023/06/02 05:32:07;;;;;;;17.55;3.50;;;14.20;91.80;;;;;;4992594;28;20037;-65
2023/06/02 05:34:34;;;;;;;13.02;3.50;;;14.20;91.40;;;;;;5000130;28;20100;-65
2023/06/02 05:37:02;;;;;;;9.30;2.92;;;14.20;91.40;;;;;;5015569;28;20031;-65
2023/06/02 05:39:29;;;;;;;17.85;3.60;;;14.20;91.50;;;;;;4998324;28;20115;-65
2023/06/02 05:41:55;;;;;;;18.58;3.97;;;14.20;91.60;;;;;;4997420;28;20025;-65
2023/06/02 05:44:21;;;;;;;15.52;3.58;;;14.20;91.80;;;;;;4995094;28;20029;-67
2023/06/02 05:46:47;;;;;;;9.73;2.58;;;14.20;92.00;;;;;;4996318;28;20033;-64
2023/06/02 05:49:15;;;;;;;12.48;3.22;;;14.20;91.90;;;;;;5002099;28;20497;-65
2023/06/02 05:51:41;;;;;;;9.88;2.88;;;14.30;91.90;;;;;;5019974;28;20025;-64
2023/06/02 05:54:10;;;;;;;15.15;4.00;;;14.40;91.80;;;;;;4997242;28;20036;-65
2023/06/02 05:56:36;;;;;;;15.70;4.07;;;14.40;91.70;;;;;;4997673;28;20362;-65
2023/06/02 05:59:02;;;;;;;19.17;3.33;;;14.50;91.50;;;;;;5011428;28;20494;-65
2023/06/02 06:01:29;;;;;;;13.93;3.13;;;14.60;91.60;;;;;;5003344;28;20032;-66
2023/06/02 06:03:56;;;;;;;9.68;3.33;;;14.70;91.40;;;;;;5018265;28;20057;-65
2023/06/02 06:06:22;;;;;;;15.65;2.90;;;14.80;91.70;;;;;;4994467;28;20187;-65
2023/06/02 06:08:48;;;;;;;14.85;3.83;;;14.90;91.20;;;;;;4997017;28;20025;-65
2023/06/02 06:11:13;;;;;;;15.43;3.47;;;15.00;91.10;;;;;;4993969;28;20118;-65
2023/06/02 06:13:39;;;;;;;9.73;3.20;;;15.10;90.90;;;;;;5017731;28;20036;-65
2023/06/02 06:16:06;;;;;;;14.85;2.97;;;15.10;91.00;;;;;;5000630;28;20095;-65
2023/06/02 06:18:32;;;;;;;16.02;3.50;;;15.10;90.60;;;;;;4999666;28;20033;-66
2023/06/02 06:20:58;;;;;;;15.55;3.63;;;15.10;90.60;;;;;;4997828;28;20025;-65
2023/06/02 06:23:25;;;;;;;12.40;3.47;;;15.10;90.70;;;;;;4994853;28;20116;-66
2023/06/02 06:25:51;;;;;;;18.42;3.15;;;15.00;91.00;;;;;;4995971;28;20069;-65
2023/06/02 06:28:18;;;;;;;14.40;3.15;;;15.00;91.20;;;;;;5000745;28;20751;-64
2023/06/02 06:30:45;;;;;;;12.60;3.35;;;14.90;91.30;;;;;;5019636;28;20037;-66
2023/06/02 06:33:11;;;;;;;19.67;3.70;;;14.90;91.50;;;;;;4996337;28;20062;-66
2023/06/02 06:35:38;;;;;;;20.98;3.50;;;15.00;91.60;;;;;;5003862;28;20044;-66
2023/06/02 06:38:07;;;;;;;12.23;3.20;;;15.10;91.40;;;;;;4995388;28;20455;-64
2023/06/02 06:40:33;;;;;;;13.75;2.88;;;15.20;91.40;;;;;;4998595;28;20077;-64
2023/06/02 06:42:59;;;;;;;13.10;2.97;;;15.30;91.40;;;;;;5000076;28;20393;-65
2023/06/02 06:45:31;;;;;;;12.20;3.05;;;15.40;91.30;;;;;;4998541;28;20022;-65
2023/06/02 06:47:57;;;;;;;13.85;3.30;;;15.50;91.10;;;;;;4998378;28;20032;-64
2023/06/02 06:50:23;;;;;;;15.27;3.30;;;15.50;91.10;;;;;;5015933;28;20038;-65
2023/06/02 06:52:50;;;;;;;11.40;2.72;;;15.50;91.10;;;;;;5019684;28;20072;-66
2023/06/02 06:55:16;;;;;;;12.48;3.63;;;15.50;91.20;;;;;;5017608;28;20033;-65
2023/06/02 06:57:42;;;;;;;11.80;3.03;;;15.60;91.00;;;;;;5016150;28;20087;-65
2023/06/02 07:00:08;;;;;;;14.70;3.15;;;15.70;91.10;;;;;;5011907;28;20469;-66
2023/06/02 07:02:35;;;;;;;11.32;2.83;;;15.80;91.10;;;;;;5002697;28;20029;-66
2023/06/02 07:05:01;;;;;;;15.80;3.05;;;15.80;90.90;;;;;;5012455;28;20041;-65
2023/06/02 07:07:26;;;;;;;12.50;3.08;;;15.80;90.70;;;;;;5016901;28;20057;-65
2023/06/02 07:09:53;;;;;;;14.02;3.55;;;15.70;90.80;;;;;;5017088;28;20037;-64
2023/06/02 07:12:19;;;;;;;15.57;3.65;;;15.80;90.90;;;;;;5013159;28;20188;-65
2023/06/02 07:14:44;;;;;;;13.10;4.00;;;15.90;90.80;;;;;;5013250;28;20426;-65
2023/06/02 07:17:10;;;;;;;11.13;3.15;;;16.10;90.70;;;;;;4995712;28;20056;-65
2023/06/02 07:19:36;;;;;;;13.93;3.50;;;16.20;90.40;;;;;;5019633;28;20396;-66
2023/06/02 07:22:02;;;;;;;20.35;4.57;;;16.30;90.30;;;;;;5019594;28;20034;-64
2023/06/02 07:24:28;;;;;;;16.52;3.88;;;16.40;88.60;;;;;;5018652;28;20026;-65
2023/06/02 07:26:55;;;;;;;20.73;3.85;;;16.40;89.00;;;;;;5016894;28;20552;-65
2023/06/02 07:29:20;;;;;;;14.25;3.45;;;16.40;89.20;;;;;;5018050;28;20052;-64
2023/06/02 07:31:46;;;;;;;15.73;3.33;;;16.30;89.70;;;;;;5023301;28;20033;-66
2023/06/02 07:34:12;;;;;;;13.40;3.40;;;16.40;90.20;;;;;;5020022;28;20484;-65
2023/06/02 07:36:38;;;;;;;13.57;3.83;;;16.60;90.30;;;;;;5020007;28;20029;-65
2023/06/02 07:39:04;;;;;;;12.63;3.50;;;16.80;90.20;;;;;;5016261;28;20040;-66
2023/06/02 07:41:30;;;;;;;11.80;3.55;;;16.90;89.90;;;;;;4998186;28;20068;-66
2023/06/02 07:43:58;;;;;;;13.85;3.35;;;16.90;88.40;;;;;;5022729;28;20101;-66
2023/06/02 07:46:23;;;;;;;13.10;4.00;;;17.10;89.50;;;;;;5019083;28;20029;-66
2023/06/02 07:48:49;;;;;;;12.13;3.80;;;17.20;88.70;;;;;;5019392;28;20025;-65
2023/06/02 07:51:15;;;;;;;19.27;4.18;;;17.40;88.60;;;;;;5014839;28;20660;-65
2023/06/02 07:53:41;;;;;;;14.93;3.63;;;17.60;87.80;;;;;;5016135;28;20036;-66
2023/06/02 07:56:07;;;;;;;18.48;3.83;;;17.60;86.50;;;;;;5001428;28;20040;-65
2023/06/02 07:58:32;;;;;;;18.40;4.70;;;17.70;87.60;;;;;;5020946;28;20076;-65
2023/06/02 08:00:58;;;;;;;12.43;4.35;;;17.70;87.30;;;;;;5001237;28;20025;-66
2023/06/02 08:03:24;;;;;;;17.30;4.57;;;17.70;85.90;;;;;;5017301;28;20092;-66
2023/06/02 08:05:50;;;;;;;17.23;4.43;;;17.60;86.40;;;;;;5015519;28;20040;-65
2023/06/02 08:08:16;;;;;;;11.30;3.70;;;17.60;87.30;;;;;;5016464;28;20056;-66
2023/06/02 08:10:42;;;;;;;14.52;4.03;;;17.50;87.00;;;;;;5021898;28;20033;-66
2023/06/02 08:13:08;;;;;;;12.23;3.72;;;17.40;87.90;;;;;;5018335;28;20034;-65
2023/06/02 08:15:35;;;;;;;11.90;3.50;;;17.30;88.00;;;;;;5015029;28;20029;-65
2023/06/02 08:18:01;;;;;;;21.42;4.57;;;17.30;89.10;;;;;;5014491;28;20037;-66
2023/06/02 08:20:28;;;;;;;14.38;4.18;;;17.30;89.60;;;;;;5012747;28;20034;-66
2023/06/02 08:22:55;;;;;;;11.70;4.07;;;17.40;89.50;;;;;;5020561;28;20039;-66
2023/06/02 08:25:20;;;;;;;14.80;4.70;;;17.40;89.30;;;;;;5018602;28;20096;-66
2023/06/02 08:27:46;;;;;;;11.70;3.63;;;17.50;89.60;;;;;;5018715;28;20022;-66
2023/06/02 08:30:13;;;;;;;13.38;4.78;;;17.50;89.80;;;;;;5013855;28;20111;-65
2023/06/02 08:32:38;;;;;;;13.68;4.03;;;17.60;87.70;;;;;;5014781;28;20033;-65
2023/06/02 08:35:05;;;;;;;17.52;4.35;;;17.60;88.10;;;;;;5021490;28;20505;-65
2023/06/02 08:37:32;;;;;;;12.23;3.45;;;17.60;88.30;;;;;;5019165;28;20473;-65
2023/06/02 08:39:58;;;;;;;10.85;3.78;;;17.60;88.20;;;;;;5017977;28;20048;-64
2023/06/02 08:42:26;;;;;;;22.90;4.97;;;17.50;88.00;;;;;;5015763;28;20037;-65
2023/06/02 08:44:52;;;;;;;14.20;4.15;;;17.50;88.50;;;;;;5013293;28;20025;-66
2023/06/02 08:47:24;;;;;;;11.25;3.60;;;17.50;88.10;;;;;;5019485;28;20017;-65
2023/06/02 08:49:50;;;;;;;14.35;3.38;;;17.40;88.50;;;;;;5020314;28;20084;-65
2023/06/02 08:52:22;;;;;;;9.05;3.20;;;17.40;87.20;;;;;;5016351;28;20124;-65
2023/06/02 08:54:49;;;;;;;12.43;3.13;;;17.50;88.00;;;;;;5015745;28;20171;-66
2023/06/02 08:57:16;;;;;;;8.30;3.00;;;17.70;86.70;;;;;;5015859;28;20029;-65
2023/06/02 08:59:43;;;;;;;11.85;4.45;;;17.80;85.60;;;;;;5017419;28;20104;-66
2023/06/02 09:02:10;;;;;;;11.93;3.13;;;18.00;84.50;;;;;;5002742;28;20030;-66
2023/06/02 09:04:35;;;;;;;11.32;3.50;;;18.20;84.60;;;;;;5019492;28;20075;-66
2023/06/02 09:07:15;;;;;;;10.98;3.03;;;18.40;84.20;;;;;;5015070;28;20749;-65
2023/06/02 09:09:44;;;;;;;11.10;3.17;;;18.50;83.00;;;;;;5014270;28;20481;-65
2023/06/02 09:12:10;;;;;;;13.82;2.95;;;18.80;82.60;;;;;;5015183;28;20052;-65
2023/06/02 09:14:36;;;;;;;12.60;3.22;;;19.00;81.20;;;;;;5020319;28;20100;-65
2023/06/02 09:17:02;;;;;;;8.65;2.80;;;19.00;80.30;;;;;;5017597;28;20029;-65
2023/06/02 09:19:50;;;;;;;6.20;2.67;;;19.00;80.90;;;;;;5016220;28;20032;-67
2023/06/02 09:22:17;;;;;;;4.32;2.33;;;18.80;81.50;;;;;;4994730;28;20508;-65
2023/06/02 09:24:42;;;;;;;9.45;2.70;;;18.80;81.70;;;;;;5018075;28;20029;-66
2023/06/02 09:27:13;;;;;;;6.78;2.50;;;18.70;80.60;;;;;;5019402;28;20037;-67
2023/06/02 09:29:39;;;;;;;6.72;2.65;;;18.60;80.00;;;;;;5018163;28;20060;-64
2023/06/02 09:32:12;;;;;;;8.45;2.38;;;18.40;81.80;;;;;;5014808;28;20034;-66
2023/06/02 09:34:38;;;;;;;6.88;2.40;;;18.20;83.10;;;;;;5015295;28;20107;-66
2023/06/02 09:37:09;;;;;;;4.75;2.33;;;18.10;83.30;;;;;;5015153;28;20033;-67
2023/06/02 09:39:42;;;;;;;6.88;2.67;;;18.00;83.90;;;;;;5016261;28;20108;-65
2023/06/02 09:42:08;;;;;;;8.32;2.70;;;18.10;84.10;;;;;;5017164;28;20026;-67
2023/06/02 09:44:35;;;;;;;8.07;3.00;;;18.10;85.60;;;;;;5013024;28;20036;-67
2023/06/02 09:47:02;;;;;;;6.85;1.92;;;18.20;85.60;;;;;;5013173;28;20044;-67
2023/06/02 09:49:40;;;;;;;7.82;2.47;;;18.30;84.10;;;;;;5017201;28;20092;-66
2023/06/02 09:52:17;;;;;;;6.97;2.25;;;18.50;82.80;;;;;;5017738;28;20032;-66
2023/06/02 09:54:45;;;;;;;7.60;3.00;;;18.50;82.40;;;;;;5017737;28;20025;-67
2023/06/02 09:57:12;;;;;;;5.88;2.47;;;18.70;80.40;;;;;;5016635;28;20052;-67
2023/06/02 09:59:42;;;;;;;5.85;2.33;;;18.80;80.80;;;;;;5015505;28;20057;-66
2023/06/02 10:02:12;;;;;;;5.30;1.73;;;19.00;81.00;;;;;;4992990;28;20535;-66
2023/06/02 10:04:38;;;;;;;4.10;2.10;;;19.10;78.60;;;;;;5016023;28;20037;-66
2023/06/02 10:07:25;;;;;;;1.88;1.40;;;19.20;76.70;;;;;;5017454;28;20398;-67
2023/06/02 10:10:10;;;;;;;5.07;1.98;;;19.30;76.00;;;;;;5015185;28;20021;-66
2023/06/02 10:12:56;;;;;;;5.22;1.83;;;19.30;74.40;;;;;;5012230;28;20029;-66
2023/06/02 10:15:34;;;;;;;3.42;1.60;;;19.30;74.40;;;;;;5000055;28;20497;-66
2023/06/02 10:18:16;;;;;;;2.83;1.27;;;19.30;74.20;;;;;;5015435;28;20762;-65
2023/06/02 10:21:08;;;;;;;3.28;1.55;;;19.40;71.20;;;;;;5015878;28;20041;-66
2023/06/02 10:24:06;;;;;;;4.50;1.48;;;19.50;71.50;;;;;;5002121;28;20032;-66
2023/06/02 10:26:39;;;;;;;2.00;1.13;;;19.60;67.30;;;;;;5012937;28;20041;-66
2023/06/02 10:29:08;;;;;;;2.55;1.20;;;19.80;65.90;;;;;;5017276;28;20480;-65
2023/06/02 10:31:34;;;;;;;4.03;1.15;;;19.90;66.00;;;;;;5013284;28;20140;-66
2023/06/02 10:34:01;;;;;;;6.38;1.23;;;20.00;64.60;;;;;;5016964;28;20109;-66
2023/06/02 10:37:05;;;;;;;2.15;1.30;;;20.30;63.40;;;;;;5014976;28;20034;-65
2023/06/02 10:39:35;;;;;;;1.40;0.82;;;20.40;62.60;;;;;;5002888;28;20112;-66
2023/06/02 10:42:14;;;;;;;2.22;1.10;;;20.60;62.40;;;;;;5016278;28;20041;-66
2023/06/02 10:44:41;;;;;;;1.83;0.95;;;20.50;58.20;;;;;;5013501;28;20425;-66
2023/06/02 10:47:19;;;;;;;1.05;0.75;;;20.50;59.70;;;;;;5016202;28;20021;-65
2023/06/02 10:49:54;;;;;;;3.95;1.20;;;20.50;58.50;;;;;;5016602;28;20429;-66
2023/06/02 10:52:20;;;;;;;2.07;1.20;;;20.50;56.80;;;;;;5012434;28;20748;-66
2023/06/02 10:55:08;;;;;;;1.33;0.90;;;20.80;54.00;;;;;;5016843;28;20034;-66
2023/06/02 10:57:59;;;;;;;1.95;1.05;;;21.30;56.10;;;;;;5016407;28;20091;-65
2023/06/02 11:00:36;;;;;;;3.20;1.05;;;21.80;53.80;;;;;;5019932;28;20406;-66
2023/06/02 11:03:27;;;;;;;1.60;0.90;;;21.90;51.70;;;;;;5019683;28;20561;-66
2023/06/02 11:06:18;;;;;;;5.55;1.20;;;21.90;51.50;;;;;;5013716;28;20036;-66
2023/06/02 11:08:45;;;;;;;1.58;0.88;;;21.60;52.80;;;;;;5004823;28;20029;-66
2023/06/02 11:11:10;;;;;;;1.63;1.13;;;21.50;49.40;;;;;;5020078;28;20436;-66
2023/06/02 11:13:58;;;;;;;4.63;1.05;;;21.30;50.50;;;;;;5019670;28;20040;-67
2023/06/02 11:16:28;;;;;;;1.73;1.00;;;21.20;52.60;;;;;;5016676;28;20117;-68
2023/06/02 11:18:54;;;;;;;6.90;1.83;;;21.20;52.40;;;;;;5016943;28;20408;-66
2023/06/02 11:21:22;;;;;;;2.40;1.38;;;21.30;53.00;;;;;;5023180;28;20652;-66
2023/06/02 11:23:48;;;;;;;3.50;1.00;;;21.50;51.50;;;;;;5022208;28;20090;-67
2023/06/02 11:26:17;;;;;;;5.60;0.95;;;21.60;48.80;;;;;;5018411;28;20112;-66
2023/06/02 11:28:43;;;;;;;2.00;0.88;;;21.60;49.70;;;;;;5018493;28;20102;-67
2023/06/02 11:31:08;;;;;;;2.08;1.38;;;21.70;49.10;;;;;;5013892;28;20041;-67
2023/06/02 11:33:38;;;;;;;2.30;1.13;;;21.70;50.10;;;;;;5023219;28;20037;-66
2023/06/02 11:36:08;;;;;;;2.08;0.98;;;21.70;50.10;;;;;;5021017;28;20552;-66
2023/06/02 11:38:34;;;;;;;3.78;1.08;;;21.80;49.50;;;;;;5016103;28;20030;-67
2023/06/02 11:41:28;;;;;;;5.50;1.00;;;22.00;48.70;;;;;;5015997;28;20068;-65
2023/06/02 11:44:06;;;;;;;4.45;1.45;;;22.20;48.40;;;;;;5016155;28;20075;-67
2023/06/02 11:46:33;;;;;;;4.15;1.00;;;22.00;47.80;;;;;;5022550;28;20033;-66
2023/06/02 11:48:59;;;;;;;2.08;1.17;;;21.90;49.30;;;;;;5021679;28;20021;-63
2023/06/02 11:51:25;;;;;;;3.70;1.30;;;21.90;52.00;;;;;;5025426;28;20033;-61
2023/06/02 11:54:02;;;;;;;1.85;1.02;;;21.90;51.00;;;;;;5025244;28;20486;-63
2023/06/02 11:56:29;;;;;;;4.55;0.90;;;21.80;49.00;;;;;;5025018;28;20112;-62
2023/06/02 11:58:55;;;;;;;3.08;1.10;;;21.70;51.10;;;;;;5024676;28;20040;-62
2023/06/02 12:01:21;;;;;;;2.05;0.90;;;21.70;50.10;;;;;;5024737;28;20033;-62
2023/06/02 12:04:11;;;;;;;3.40;1.33;;;21.60;50.00;;;;;;5024963;28;20041;-62
2023/06/02 12:06:47;;;;;;;3.17;1.20;;;21.60;51.30;;;;;;5016150;28;20029;-62
2023/06/02 12:09:15;;;;;;;5.55;1.42;;;21.40;50.50;;;;;;5020575;28;20439;-63
2023/06/02 12:11:42;;;;;;;3.00;1.50;;;21.40;51.70;;;;;;5020801;28;20132;-63
2023/06/02 12:14:09;;;;;;;1.67;0.93;;;21.30;52.40;;;;;;5024672;28;20095;-63
2023/06/02 12:16:38;;;;;;;1.75;0.88;;;21.30;52.50;;;;;;5022210;28;20099;-62
2023/06/02 12:19:14;;;;;;;2.55;1.10;;;21.40;51.20;;;;;;5022499;28;20033;-63
2023/06/02 12:21:41;;;;;;;2.97;1.50;;;21.40;51.80;;;;;;5016987;28;20044;-62
2023/06/02 12:24:08;;;;;;;3.65;1.65;;;21.40;51.00;;;;;;5024592;28;20040;-63
2023/06/02 12:26:42;;;;;;;3.38;1.27;;;21.40;51.40;;;;;;5025006;28;20029;-62
2023/06/02 12:29:12;;;;;;;3.65;1.20;;;21.40;51.60;;;;;;5025393;28;20036;-62
2023/06/02 12:31:38;;;;;;;3.22;1.00;;;21.30;52.50;;;;;;5022326;28;20028;-62
2023/06/02 12:34:07;;;;;;;2.75;1.13;;;21.30;51.30;;;;;;5025374;28;20028;-62
2023/06/02 12:36:33;;;;;;;3.80;1.05;;;21.20;51.70;;;;;;5025684;28;20039;-62
2023/06/02 12:39:04;;;;;;;3.60;1.20;;;21.10;52.20;;;;;;5019396;28;20029;-62
2023/06/02 12:41:31;;;;;;;2.75;1.00;;;21.20;52.80;;;;;;5024916;28;20400;-60
2023/06/02 12:43:58;;;;;;;3.85;0.90;;;21.30;51.50;;;;;;5025506;28;20037;-61
2023/06/02 12:46:26;;;;;;;7.35;1.13;;;21.30;51.80;;;;;;5024819;28;20036;-61